Time;durP1;ratioP1;P1;durP2;ratioP2;P2;SDS_P1;SDS_P2;PMS_P1;PMS_P2;Temp;Humidity;BMP_temperature;BMP_pressure;BME280_temperature;BME280_humidity;BME280_pressure;Samples;Min_cycle;Max_cycle;Signal;HPM_P1;HPM_P2
2023/10/16 00:01:21;;;;;;;;;4.33;4.33;;;;;7.69;100.00;101811.63;5090621;27;45419;-72
2023/10/16 00:03:48;;;;;;;;;1.33;1.33;;;;;7.63;100.00;101806.81;5090994;27;46396;-72
2023/10/16 00:06:14;;;;;;;;;4.00;4.00;;;;;7.59;100.00;101801.69;5108100;27;46632;-73
2023/10/16 00:08:50;;;;;;;;;3.33;3.33;;;;;7.55;100.00;101805.75;5084902;27;45291;-73
2023/10/16 00:11:18;;;;;;;;;2.67;2.67;;;;;7.50;100.00;101818.19;5085814;27;45361;-74
2023/10/16 00:13:50;;;;;;;;;4.33;3.00;;;;;7.48;100.00;101804.69;5086455;27;46695;-74
2023/10/16 00:16:18;;;;;;;;;3.33;3.33;;;;;7.43;100.00;101804.34;5092023;27;45419;-72
2023/10/16 00:18:47;;;;;;;;;2.00;2.00;;;;;7.43;100.00;101812.53;5088831;27;45770;-73
2023/10/16 00:21:13;;;;;;;;;2.33;2.33;;;;;7.39;100.00;101802.94;5090616;27;45541;-73
2023/10/16 00:23:40;;;;;;;;;2.67;2.00;;;;;7.35;100.00;101804.28;5094564;27;45949;-74
2023/10/16 00:26:07;;;;;;;;;4.00;3.00;;;;;7.34;100.00;101811.63;5108233;27;48476;-73
2023/10/16 00:28:34;;;;;;;;;6.00;4.00;;;;;7.31;100.00;101809.22;5087873;27;45469;-74
2023/10/16 00:30:59;;;;;;;;;3.00;3.00;;;;;7.33;100.00;101801.72;5086184;27;46815;-74
2023/10/16 00:33:25;;;;;;;;;5.67;4.67;;;;;7.31;100.00;101795.56;5085252;27;45664;-74
2023/10/16 00:35:53;;;;;;;;;4.67;4.67;;;;;7.30;100.00;101801.19;5082734;27;46399;-74
2023/10/16 00:38:22;;;;;;;;;2.33;2.00;;;;;7.26;100.00;101795.22;5094994;27;45479;-72
2023/10/16 00:43:33;;;;;;;;;2.00;2.00;;;;;7.21;100.00;101784.75;5085570;27;45414;-73
2023/10/16 00:46:08;;;;;;;;;5.00;3.33;;;;;7.20;100.00;101783.06;5093785;27;45812;-71
2023/10/16 00:48:36;;;;;;;;;3.00;3.00;;;;;7.14;100.00;101783.72;5093092;27;45435;-73
2023/10/16 00:51:07;;;;;;;;;1.00;1.00;;;;;7.16;100.00;101781.66;5093026;27;46288;-72
2023/10/16 00:53:33;;;;;;;;;2.00;2.00;;;;;7.14;100.00;101788.28;5088757;27;45591;-72
2023/10/16 00:56:01;;;;;;;;;2.00;2.00;;;;;7.08;100.00;101781.63;5093965;27;46460;-72
2023/10/16 00:58:29;;;;;;;;;3.67;3.00;;;;;7.05;100.00;101779.19;5092040;27;46666;-74
2023/10/16 01:00:57;;;;;;;;;2.67;2.00;;;;;7.05;100.00;101773.72;5093894;27;45426;-72
2023/10/16 01:03:24;;;;;;;;;2.00;2.00;;;;;6.95;100.00;101765.69;5095010;27;45834;-72
2023/10/16 01:05:50;;;;;;;;;6.00;5.00;;;;;6.92;100.00;101770.59;5088332;27;45541;-73
2023/10/16 01:08:17;;;;;;;;;4.00;2.67;;;;;6.93;100.00;101766.84;5089262;27;45491;-72
2023/10/16 01:10:48;;;;;;;;;4.00;4.00;;;;;6.94;100.00;101768.56;5093612;27;45774;-74
2023/10/16 01:13:16;;;;;;;;;4.00;3.33;;;;;6.88;100.00;101770.03;5092483;27;45640;-72
2023/10/16 01:15:46;;;;;;;;;3.00;3.00;;;;;6.87;100.00;101768.31;5094161;27;45377;-73
2023/10/16 01:18:15;;;;;;;;;2.33;2.00;;;;;6.87;100.00;101769.19;5094251;27;45564;-72
2023/10/16 01:20:46;;;;;;;;;6.67;4.00;;;;;6.84;100.00;101746.84;5092282;27;45562;-72
2023/10/16 01:23:20;;;;;;;;;2.33;1.00;;;;;6.86;100.00;101756.56;5093384;27;45384;-73
2023/10/16 01:25:49;;;;;;;;;3.67;3.67;;;;;6.81;100.00;101758.94;5094341;27;45731;-72
2023/10/16 01:28:17;;;;;;;;;7.33;2.00;;;;;6.82;100.00;101766.09;5087288;27;45744;-72
2023/10/16 01:30:45;;;;;;;;;5.00;2.33;;;;;6.81;100.00;101753.47;5092108;27;45576;-73
2023/10/16 01:33:11;;;;;;;;;3.67;2.00;;;;;6.80;100.00;101754.50;5085092;27;46327;-72
2023/10/16 01:35:37;;;;;;;;;0.00;0.00;;;;;6.82;100.00;101749.72;5088275;27;46431;-72
2023/10/16 01:38:18;;;;;;;;;5.00;4.00;;;;;6.81;100.00;101744.44;5086225;27;45514;-72
2023/10/16 01:41:06;;;;;;;;;4.33;3.00;;;;;6.79;100.00;101739.13;5092958;27;45280;-72
2023/10/16 01:43:33;;;;;;;;;4.67;3.00;;;;;6.77;100.00;101741.19;5088079;27;45868;-74
2023/10/16 01:46:01;;;;;;;;;3.33;2.00;;;;;6.77;100.00;101740.34;5094461;27;46514;-73
2023/10/16 01:48:29;;;;;;;;;4.33;3.67;;;;;6.76;100.00;101739.47;5094570;27;45415;-73
2023/10/16 01:50:56;;;;;;;;;5.67;4.00;;;;;6.72;100.00;101738.06;5091074;27;45963;-71
2023/10/16 01:53:25;;;;;;;;;3.67;0.00;;;;;6.74;100.00;101738.78;5079641;27;45931;-72
2023/10/16 01:55:54;;;;;;;;;5.00;4.00;;;;;6.73;100.00;101742.50;5093860;27;45423;-73
2023/10/16 01:58:24;;;;;;;;;6.67;4.00;;;;;6.70;100.00;101740.94;5087977;27;45812;-74
2023/10/16 02:00:52;;;;;;;;;3.67;2.67;;;;;6.69;100.00;101732.91;5094423;27;45848;-72
2023/10/16 02:03:18;;;;;;;;;2.33;2.33;;;;;6.67;100.00;101724.91;5127635;27;45544;-74
2023/10/16 02:05:46;;;;;;;;;1.67;1.67;;;;;6.64;100.00;101719.78;5091322;27;46017;-73
2023/10/16 02:08:13;;;;;;;;;3.00;3.00;;;;;6.66;100.00;101716.88;5091355;27;45478;-71
2023/10/16 02:10:39;;;;;;;;;3.00;1.33;;;;;6.49;100.00;101686.78;5094818;27;45624;-73
2023/10/16 02:13:04;;;;;;;;;4.00;3.33;;;;;6.64;100.00;101708.88;5092269;27;45792;-72
2023/10/16 02:15:29;;;;;;;;;3.33;2.33;;;;;6.65;100.00;101716.03;5094584;27;46297;-72
2023/10/16 02:17:55;;;;;;;;;4.00;4.00;;;;;6.62;100.00;101702.72;5093269;27;45469;-72
2023/10/16 02:20:26;;;;;;;;;5.00;1.67;;;;;6.65;100.00;101701.56;5089618;27;45363;-72
2023/10/16 02:22:53;;;;;;;;;5.00;4.00;;;;;6.65;100.00;101710.59;5091269;27;45474;-73
2023/10/16 02:25:18;;;;;;;;;3.00;2.00;;;;;6.65;100.00;101701.56;5085728;27;46293;-72
2023/10/16 02:27:44;;;;;;;;;6.67;3.00;;;;;6.63;100.00;101700.84;5088190;27;45560;-74
2023/10/16 02:30:28;;;;;;;;;2.33;2.33;;;;;6.58;100.00;101684.13;5083274;27;45654;-73
2023/10/16 02:32:53;;;;;;;;;3.33;2.00;;;;;6.56;100.00;101681.56;5089877;27;45470;-73
2023/10/16 02:35:22;;;;;;;;;3.00;3.00;;;;;6.56;100.00;101687.03;5096553;27;46996;-72
2023/10/16 02:37:53;;;;;;;;;4.00;3.00;;;;;6.53;100.00;101690.91;5097247;27;45480;-73
2023/10/16 02:40:20;;;;;;;;;3.00;2.00;;;;;6.53;100.00;101695.53;5095688;27;45765;-73
2023/10/16 02:42:52;;;;;;;;;4.67;4.00;;;;;6.41;100.00;101666.78;5097084;27;45725;-74
2023/10/16 02:45:27;;;;;;;;;7.33;3.00;;;;;6.51;100.00;101684.78;5097189;27;46298;-73
2023/10/16 02:47:53;;;;;;;;;2.00;2.00;;;;;6.46;100.00;101689.81;5094992;27;45717;-73
2023/10/16 02:50:19;;;;;;;;;4.00;3.00;;;;;6.42;100.00;101688.47;5093805;27;45895;-73
2023/10/16 02:52:47;;;;;;;;;5.00;3.00;;;;;6.41;100.00;101685.88;5094696;27;46830;-73
2023/10/16 02:55:14;;;;;;;;;6.00;4.00;;;;;6.41;100.00;101688.59;5094646;27;45702;-73
2023/10/16 02:57:40;;;;;;;;;3.33;2.00;;;;;6.39;100.00;101694.19;5081735;27;45431;-73
2023/10/16 03:00:49;;;;;;;;;3.33;3.00;;;;;6.34;100.00;101682.94;5095064;27;45710;-73
2023/10/16 03:03:00;;;;;;;;;3.00;3.00;;;;;6.35;100.00;101685.50;5090837;27;45295;-72
2023/10/16 03:05:28;;;;;;;;;4.33;3.00;;;;;6.34;100.00;101693.81;5095422;27;45683;-73
2023/10/16 03:07:54;;;;;;;;;7.67;5.00;;;;;6.31;100.00;101700.44;5094564;27;45735;-74
2023/10/16 03:10:24;;;;;;;;;7.33;4.00;;;;;6.27;100.00;101687.28;5093412;27;45549;-73
2023/10/16 03:12:50;;;;;;;;;4.67;4.67;;;;;6.25;100.00;101681.16;5094053;27;45687;-73
2023/10/16 03:15:30;;;;;;;;;5.67;4.00;;;;;6.26;100.00;101683.72;5083473;27;45768;-72
2023/10/16 03:17:55;;;;;;;;;6.00;4.00;;;;;6.22;100.00;101676.03;5094211;27;45845;-73
2023/10/16 03:20:23;;;;;;;;;9.67;6.67;;;;;6.22;100.00;101681.47;5096548;27;45399;-72
2023/10/16 03:22:53;;;;;;;;;6.00;5.67;;;;;6.18;100.00;101680.91;5092921;27;45775;-73
2023/10/16 03:25:28;;;;;;;;;6.67;4.00;;;;;6.16;100.00;101681.06;5096444;27;45441;-73
2023/10/16 03:27:57;;;;;;;;;4.00;3.00;;;;;6.15;100.00;101679.38;5095586;27;45378;-73
2023/10/16 03:30:28;;;;;;;;;2.67;2.67;;;;;6.13;100.00;101670.50;5091992;27;45313;-73
2023/10/16 03:32:54;;;;;;;;;4.33;4.33;;;;;6.10;100.00;101669.97;5093909;27;45523;-73
2023/10/16 03:35:29;;;;;;;;;4.00;4.00;;;;;6.10;100.00;101661.78;5095963;27;45702;-73
2023/10/16 03:37:58;;;;;;;;;4.00;2.00;;;;;6.06;100.00;101674.84;5096348;27;45486;-72
2023/10/16 03:40:27;;;;;;;;;4.00;4.00;;;;;6.04;100.00;101663.28;5095847;27;46044;-73
2023/10/16 03:42:56;;;;;;;;;4.67;4.67;;;;;5.91;100.00;101641.00;5095371;27;45345;-72
2023/10/16 03:45:21;;;;;;;;;12.00;10.33;;;;;5.99;100.00;101657.44;5088751;27;46640;-74
2023/10/16 03:47:57;;;;;;;;;8.67;4.00;;;;;5.98;100.00;101655.72;5105864;27;45648;-74
2023/10/16 03:50:26;;;;;;;;;6.67;5.00;;;;;5.99;100.00;101662.91;5094919;27;45517;-73
2023/10/16 03:52:57;;;;;;;;;4.33;4.00;;;;;5.96;100.00;101661.31;5096011;27;45955;-73
2023/10/16 03:55:24;;;;;;;;;5.67;3.33;;;;;5.95;100.00;101664.19;5096105;27;46136;-74
2023/10/16 03:57:50;;;;;;;;;3.33;3.00;;;;;5.90;100.00;101655.59;5094818;27;45356;-72
2023/10/16 04:00:18;;;;;;;;;4.33;3.00;;;;;5.95;100.00;101661.47;5095014;27;45407;-73
2023/10/16 04:02:44;;;;;;;;;2.00;1.67;;;;;5.84;100.00;101649.78;5091827;27;45467;-73
2023/10/16 04:05:29;;;;;;;;;6.00;5.00;;;;;5.94;100.00;101665.19;5095693;27;46798;-73
2023/10/16 04:07:55;;;;;;;;;4.33;3.00;;;;;5.89;100.00;101656.63;5091605;27;45447;-73
2023/10/16 04:10:29;;;;;;;;;6.00;4.00;;;;;5.89;100.00;101662.94;5093811;27;45536;-73
2023/10/16 04:12:57;;;;;;;;;6.00;4.67;;;;;5.91;100.00;101669.06;5091438;27;46922;-73
2023/10/16 04:18:09;;;;;;;;;5.00;5.00;;;;;5.90;100.00;101652.88;5092658;27;45371;-73
2023/10/16 04:20:44;;;;;;;;;8.33;4.67;;;;;5.86;100.00;101651.50;5083616;27;45537;-73
2023/10/16 04:29:20;;;;;;;;;4.00;4.00;;;;;5.90;100.00;101666.50;5095241;27;45600;-72
2023/10/16 04:53:12;;;;;;;;;5.67;3.00;;;;;5.74;100.00;101629.94;5089828;27;45457;-72
2023/10/16 04:58:38;;;;;;;;;4.67;4.00;;;;;5.75;100.00;101625.34;5079161;27;45461;-69
2023/10/16 05:19:52;;;;;;;;;7.67;5.00;;;;;5.80;100.00;101602.09;5081316;27;45391;-70
2023/10/16 06:14:11;;;;;;;;;8.33;6.33;;;;;5.79;100.00;101616.75;5095068;27;45703;-71
2023/10/16 06:16:40;;;;;;;;;9.33;8.33;;;;;5.80;100.00;101623.03;5092041;27;45577;-72
2023/10/16 06:19:17;;;;;;;;;8.67;6.00;;;;;5.82;100.00;101623.72;5083765;27;45356;-71
2023/10/16 06:21:47;;;;;;;;;11.00;8.33;;;;;5.77;100.00;101616.03;5085390;27;45593;-71
2023/10/16 06:24:25;;;;;;;;;7.67;7.00;;;;;5.87;100.00;101617.81;5080848;27;46143;-74
2023/10/16 06:26:57;;;;;;;;;8.67;6.00;;;;;5.93;100.00;101622.66;5080588;27;45813;-76
2023/10/16 06:29:26;;;;;;;;;11.00;11.00;;;;;6.03;100.00;101612.53;5100891;27;45933;-72
2023/10/16 06:31:58;;;;;;;;;18.33;11.00;;;;;6.13;100.00;101618.75;5078134;27;45602;-72
2023/10/16 06:34:24;;;;;;;;;19.67;15.33;;;;;6.14;100.00;101619.63;5080350;27;45848;-73
2023/10/16 06:36:53;;;;;;;;;13.33;10.00;;;;;6.20;100.00;101613.53;5080496;27;45621;-71
2023/10/16 06:39:35;;;;;;;;;18.33;13.00;;;;;6.22;100.00;101611.50;5083992;27;45871;-73
2023/10/16 06:42:04;;;;;;;;;19.00;14.00;;;;;6.28;100.00;101608.13;5103670;27;46420;-74
2023/10/16 06:44:31;;;;;;;;;13.67;12.33;;;;;6.35;100.00;101616.53;5085094;27;45587;-74
2023/10/16 06:46:59;;;;;;;;;9.67;9.67;;;;;6.37;100.00;101614.50;5083035;27;45863;-74
2023/10/16 06:49:35;;;;;;;;;7.33;7.33;;;;;6.44;100.00;101609.28;5080806;27;45862;-75
2023/10/16 06:52:04;;;;;;;;;7.33;5.67;;;;;6.46;100.00;101616.25;5087535;27;46064;-74
2023/10/16 06:54:30;;;;;;;;;10.00;7.00;;;;;6.56;100.00;101618.88;5088945;27;46883;-74
2023/10/16 06:56:59;;;;;;;;;10.67;9.00;;;;;6.59;100.00;101620.44;5087869;27;45710;-77
2023/10/16 06:59:27;;;;;;;;;13.00;7.33;;;;;6.62;100.00;101620.97;5079920;27;45815;-75
2023/10/16 07:01:53;;;;;;;;;12.00;9.33;;;;;6.50;100.00;101598.59;5081445;27;45695;-75
2023/10/16 07:04:21;;;;;;;;;6.67;5.33;;;;;6.66;100.00;101625.09;5083538;27;46139;-74
2023/10/16 07:06:48;;;;;;;;;11.00;9.33;;;;;6.74;100.00;101616.09;5087156;27;45608;-76
2023/10/16 07:09:16;;;;;;;;;11.00;7.67;;;;;6.79;100.00;101616.44;5089070;27;45690;-73
2023/10/16 07:11:42;;;;;;;;;10.33;8.67;;;;;6.84;100.00;101613.22;5084332;27;45852;-73
2023/10/16 07:14:12;;;;;;;;;11.33;7.33;;;;;6.82;100.00;101609.81;5087789;27;46766;-75
2023/10/16 07:16:39;;;;;;;;;10.00;7.00;;;;;6.87;100.00;101615.63;5086413;27;45387;-76
2023/10/16 07:19:07;;;;;;;;;9.33;9.33;;;;;6.83;100.00;101593.31;5080188;27;45894;-74
2023/10/16 07:21:32;;;;;;;;;9.00;8.00;;;;;6.97;100.00;101608.19;5089473;27;46451;-74
2023/10/16 07:23:58;;;;;;;;;9.67;6.67;;;;;7.01;100.00;101587.75;5085700;27;45576;-71
2023/10/16 07:26:25;;;;;;;;;3.00;3.00;;;;;7.06;100.00;101598.16;5085592;27;45427;-73
2023/10/16 07:28:51;;;;;;;;;7.67;7.00;;;;;7.12;100.00;101597.50;5084534;27;45815;-74
2023/10/16 07:31:17;;;;;;;;;7.33;6.00;;;;;7.05;100.00;101604.63;5082914;27;45892;-73
2023/10/16 07:33:50;;;;;;;;;8.67;8.00;;;;;7.16;100.00;101615.25;5078577;27;46765;-75
2023/10/16 07:36:17;;;;;;;;;10.33;6.00;;;;;7.18;100.00;101613.19;5091720;27;45601;-73
2023/10/16 07:38:44;;;;;;;;;11.00;8.00;;;;;7.22;100.00;101606.41;5093414;27;45754;-73
2023/10/16 07:41:13;;;;;;;;;7.33;7.33;;;;;7.40;100.00;101621.81;5089855;27;45776;-73
2023/10/16 07:43:39;;;;;;;;;8.67;7.00;;;;;7.52;100.00;101620.47;5082309;27;46177;-74
2023/10/16 07:48:41;;;;;;;;;11.33;10.33;;;;;7.91;100.00;101613.53;5094877;27;45372;-73
2023/10/16 07:51:10;;;;;;;;;7.00;7.00;;;;;7.92;100.00;101616.09;5093297;27;45651;-73
2023/10/16 07:53:37;;;;;;;;;7.00;5.00;;;;;7.91;100.00;101619.00;5093932;27;45453;-73
2023/10/16 07:56:19;;;;;;;;;9.33;6.33;;;;;7.95;100.00;101626.69;5091280;27;45497;-75
2023/10/16 07:58:48;;;;;;;;;6.00;6.00;;;;;7.98;100.00;101616.44;5086247;27;45486;-74
2023/10/16 08:03:45;;;;;;;;;9.33;6.67;;;;;8.03;100.00;101623.09;5093418;27;46639;-75
2023/10/16 08:06:17;;;;;;;;;8.00;7.33;;;;;8.11;100.00;101617.66;5093695;27;45772;-74
2023/10/16 08:08:49;;;;;;;;;13.33;7.00;;;;;8.18;100.00;101617.81;5094393;27;46483;-73
2023/10/16 08:11:19;;;;;;;;;9.00;9.00;;;;;8.28;100.00;101618.47;5090011;27;45487;-74
2023/10/16 08:13:48;;;;;;;;;7.67;6.00;;;;;8.12;100.00;101594.75;5089212;27;46540;-74
2023/10/16 08:16:18;;;;;;;;;8.67;8.33;;;;;8.34;100.00;101606.00;5092478;27;45549;-73
2023/10/16 08:18:49;;;;;;;;;7.00;5.00;;;;;8.40;100.00;101605.31;5092795;27;45324;-75
2023/10/16 08:21:25;;;;;;;;;10.00;8.00;;;;;8.41;100.00;101609.75;5092438;27;45431;-75
2023/10/16 08:23:55;;;;;;;;;5.00;5.00;;;;;8.51;100.00;101593.19;5091892;27;45549;-75
2023/10/16 08:26:29;;;;;;;;;11.00;8.00;;;;;8.58;100.00;101605.13;5091379;27;45442;-74
2023/10/16 08:32:43;;;;;;;;;8.33;8.33;;;;;8.69;100.00;101589.38;5089877;27;45766;-74
2023/10/16 08:34:40;;;;;;;;;9.00;7.33;;;;;8.74;100.00;101592.44;5090598;27;45686;-76
2023/10/16 08:37:08;;;;;;;;;6.33;5.33;;;;;8.87;100.00;101587.25;5101818;27;45999;-74
2023/10/16 08:39:36;;;;;;;;;7.33;6.33;;;;;8.98;100.00;101578.69;5092037;27;45443;-74
2023/10/16 08:42:22;;;;;;;;;6.00;5.00;;;;;9.05;100.00;101586.16;5089088;27;45757;-74
2023/10/16 08:44:51;;;;;;;;;7.00;6.00;;;;;9.12;100.00;101565.28;5080608;27;45924;-74
2023/10/16 08:47:24;;;;;;;;;7.00;7.00;;;;;9.26;100.00;101580.06;5092074;27;45929;-74
2023/10/16 08:49:55;;;;;;;;;8.00;6.00;;;;;9.32;100.00;101571.13;5091285;27;45870;-74
2023/10/16 08:52:22;;;;;;;;;6.33;6.33;;;;;9.41;100.00;101563.75;5090996;27;45507;-73
2023/10/16 08:57:25;;;;;;;;;7.67;6.00;;;;;9.52;100.00;101533.19;5091318;27;45937;-73
2023/10/16 08:59:52;;;;;;;;;9.00;9.00;;;;;9.69;100.00;101547.63;5088288;27;45348;-74
2023/10/16 09:02:20;;;;;;;;;6.00;6.00;;;;;9.62;100.00;101542.00;5076990;27;45430;-74
2023/10/16 09:04:50;;;;;;;;;6.00;6.00;;;;;9.57;100.00;101518.97;5092529;27;46151;-74
2023/10/16 09:07:19;;;;;;;;;8.00;6.67;;;;;9.65;100.00;101536.16;5091366;27;45656;-74
2023/10/16 09:09:53;;;;;;;;;5.00;4.00;;;;;9.80;100.00;101532.63;5093424;27;45782;-74
2023/10/16 09:12:26;;;;;;;;;4.00;4.00;;;;;9.84;100.00;101543.03;5092601;27;45717;-73
2023/10/16 09:14:53;;;;;;;;;3.00;3.00;;;;;9.96;100.00;101543.44;5087596;27;48559;-73
2023/10/16 09:17:27;;;;;;;;;4.00;4.00;;;;;10.00;100.00;101533.81;5083981;27;45337;-73
2023/10/16 09:19:53;;;;;;;;;4.67;3.33;;;;;10.07;100.00;101532.06;5086748;27;45751;-74
2023/10/16 09:22:23;;;;;;;;;8.00;5.00;;;;;10.18;100.00;101551.78;5092228;27;45662;-73
2023/10/16 09:24:51;;;;;;;;;3.00;3.00;;;;;10.35;100.00;101536.91;5091538;27;46183;-73
2023/10/16 09:27:18;;;;;;;;;8.00;4.33;;;;;10.43;100.00;101538.72;5090316;27;45867;-74
2023/10/16 09:29:53;;;;;;;;;5.00;4.00;;;;;10.59;100.00;101533.03;5090648;27;45631;-74
2023/10/16 09:32:39;;;;;;;;;5.00;5.00;;;;;10.68;100.00;101542.03;5088078;27;45887;-75
2023/10/16 09:35:06;;;;;;;;;5.33;3.00;;;;;10.83;100.00;101535.69;5082100;27;47789;-75
2023/10/16 09:37:35;;;;;;;;;6.00;5.00;;;;;10.96;100.00;101522.13;5084879;27;45573;-74
2023/10/16 09:40:35;;;;;;;;;2.33;2.00;;;;;10.89;100.00;101532.19;5082822;27;45643;-74
2023/10/16 09:43:05;;;;;;;;;2.67;2.33;;;;;10.96;100.00;101511.16;5089024;27;45939;-74
2023/10/16 09:45:36;;;;;;;;;6.33;4.00;;;;;11.05;100.00;101510.00;5090516;27;45843;-74
2023/10/16 09:48:08;;;;;;;;;3.67;2.33;;;;;11.07;100.00;101524.38;5084410;27;47398;-75
2023/10/16 09:50:38;;;;;;;;;3.33;3.33;;;;;11.12;100.00;101516.41;5102637;27;45924;-77
2023/10/16 09:53:05;;;;;;;;;6.00;4.33;;;;;11.32;100.00;101499.31;5091758;27;45482;-76
2023/10/16 09:55:44;;;;;;;;;4.00;4.00;;;;;11.73;100.00;101500.53;5091708;27;46237;-72
2023/10/16 09:58:11;;;;;;;;;4.00;4.00;;;;;11.91;100.00;101487.16;5084696;27;45365;-71
2023/10/16 10:00:46;;;;;;;;;5.67;5.33;;;;;12.40;100.00;101510.16;5092289;27;45340;-74
2023/10/16 10:03:14;;;;;;;;;4.00;3.33;;;;;12.44;100.00;101489.44;5091508;27;45818;-75
2023/10/16 10:05:55;;;;;;;;;3.33;3.33;;;;;12.83;100.00;101496.19;5081288;27;47451;-76
2023/10/16 10:09:20;;;;;;;;;3.00;1.67;;;;;13.23;100.00;101500.97;5098888;27;45486;-76
2023/10/16 10:12:50;;;;;;;;;3.33;3.33;;;;;13.43;100.00;101484.53;5083800;27;45462;-75
2023/10/16 10:15:01;;;;;;;;;3.33;2.00;;;;;13.41;100.00;101470.97;5085796;27;45396;-76
2023/10/16 10:17:28;;;;;;;;;3.67;2.67;;;;;13.37;100.00;101482.63;5079401;27;45835;-74
2023/10/16 10:19:55;;;;;;;;;4.67;3.00;;;;;12.99;100.00;101485.88;5086811;27;45542;-75
2023/10/16 10:22:28;;;;;;;;;3.67;3.00;;;;;12.81;100.00;101476.28;5086892;27;45483;-77
2023/10/16 10:25:09;;;;;;;;;4.33;1.67;;;;;12.92;100.00;101460.22;5087582;27;45532;-76
2023/10/16 10:27:41;;;;;;;;;3.67;2.67;;;;;12.74;100.00;101458.91;5088948;27;45915;-75
2023/10/16 10:30:17;;;;;;;;;6.67;4.00;;;;;12.89;100.00;101467.84;5088294;27;45835;-76
2023/10/16 10:32:53;;;;;;;;;5.00;3.00;;;;;13.13;100.00;101460.06;5084442;27;45789;-76
2023/10/16 10:35:47;;;;;;;;;4.67;4.67;;;;;13.25;100.00;101452.88;5082021;27;45760;-75
2023/10/16 10:38:20;;;;;;;;;4.67;3.67;;;;;13.06;100.00;101456.44;5084843;27;45885;-75
2023/10/16 10:41:04;;;;;;;;;3.00;3.00;;;;;12.98;100.00;101464.88;5078304;27;45668;-76
2023/10/16 10:43:49;;;;;;;;;0.67;0.67;;;;;12.97;100.00;101427.41;5086211;27;45736;-76
2023/10/16 10:46:20;;;;;;;;;5.67;4.00;;;;;12.89;100.00;101440.31;5075070;27;45520;-73
2023/10/16 10:48:46;;;;;;;;;2.33;0.00;;;;;12.86;100.00;101412.38;5087900;27;45651;-77
2023/10/16 10:51:15;;;;;;;;;5.33;5.33;;;;;13.17;100.00;101436.56;5083388;27;45561;-79
2023/10/16 10:53:53;;;;;;;;;7.33;3.67;;;;;13.19;100.00;101462.00;5088398;27;45729;-77
2023/10/16 10:56:20;;;;;;;;;3.67;3.67;;;;;13.16;100.00;101423.84;5085446;27;45907;-77
2023/10/16 10:58:46;;;;;;;;;3.00;3.00;;;;;13.48;100.00;101446.16;5094961;27;48147;-79
2023/10/16 11:01:16;;;;;;;;;4.00;4.00;;;;;13.52;100.00;101454.88;5082709;27;45818;-78
2023/10/16 11:03:45;;;;;;;;;2.67;2.67;;;;;13.51;100.00;101447.66;5088489;27;45758;-78
2023/10/16 11:06:20;;;;;;;;;3.00;1.67;;;;;13.42;100.00;101449.75;5088749;27;45919;-80
2023/10/16 11:08:55;;;;;;;;;2.00;2.00;;;;;13.47;100.00;101436.19;5088389;27;45490;-78
2023/10/16 11:11:21;;;;;;;;;2.67;2.67;;;;;13.45;100.00;101437.47;5092784;27;45370;-75
2023/10/16 11:13:48;;;;;;;;;2.00;1.00;;;;;13.44;100.00;101409.06;5091336;27;45542;-74
2023/10/16 11:16:15;;;;;;;;;6.00;3.00;;;;;13.51;100.00;101414.59;5100288;27;45813;-72
2023/10/16 11:18:40;;;;;;;;;3.33;2.00;;;;;13.51;100.00;101398.06;5093392;27;46109;-76
2023/10/16 11:21:06;;;;;;;;;1.67;1.67;;;;;13.50;100.00;101415.63;5085958;27;45748;-78
2023/10/16 11:23:32;;;;;;;;;2.33;2.33;;;;;13.51;99.03;101401.66;5094677;27;45484;-75
2023/10/16 11:25:58;;;;;;;;;2.00;1.00;;;;;13.64;99.26;101397.19;5094206;27;45675;-75
2023/10/16 11:28:28;;;;;;;;;2.33;2.00;;;;;13.47;98.92;101380.25;5094498;27;45453;-78
2023/10/16 11:30:56;;;;;;;;;2.00;2.00;;;;;13.54;99.18;101381.94;5093648;27;45852;-76
2023/10/16 11:33:35;;;;;;;;;4.00;4.00;;;;;13.54;98.98;101376.41;5091983;27;45931;-78
2023/10/16 11:36:06;;;;;;;;;5.33;4.00;;;;;13.52;98.53;101366.69;5084836;27;45660;-77
2023/10/16 11:38:37;;;;;;;;;6.00;2.33;;;;;13.47;98.32;101375.56;5092415;27;46031;-79
2023/10/16 11:41:12;;;;;;;;;1.67;0.67;;;;;13.46;99.21;101362.88;5090266;27;45413;-77
2023/10/16 11:43:40;;;;;;;;;1.67;1.33;;;;;13.34;97.05;101376.44;5082069;27;45721;-78
2023/10/16 11:46:27;;;;;;;;;1.00;1.00;;;;;13.37;97.71;101347.63;5093002;27;45870;-77
2023/10/16 11:48:56;;;;;;;;;1.00;1.00;;;;;13.28;97.43;101348.84;5088127;27;46174;-77
2023/10/16 11:51:24;;;;;;;;;2.00;2.00;;;;;13.50;98.69;101346.75;5092605;27;45706;-77
2023/10/16 11:53:49;;;;;;;;;1.00;0.67;;;;;13.62;97.01;101341.44;5094017;27;45432;-76
2023/10/16 11:56:18;;;;;;;;;2.67;1.00;;;;;13.71;96.38;101348.41;5092805;27;46144;-77
2023/10/16 11:58:44;;;;;;;;;2.00;2.00;;;;;13.69;96.17;101337.59;5093720;27;47265;-79
2023/10/16 12:01:09;;;;;;;;;1.00;0.00;;;;;13.71;94.15;101323.59;5092861;27;45722;-78
2023/10/16 12:03:38;;;;;;;;;3.00;0.67;;;;;13.69;94.61;101311.97;5093540;27;45612;-78
2023/10/16 12:06:13;;;;;;;;;2.00;1.00;;;;;13.70;93.73;101320.00;5092558;27;45443;-76
2023/10/16 12:08:41;;;;;;;;;0.33;0.33;;;;;13.77;93.78;101315.34;5091627;27;47468;-76
2023/10/16 12:11:07;;;;;;;;;1.00;1.00;;;;;13.71;91.33;101293.28;5092331;27;45443;-77
2023/10/16 12:13:33;;;;;;;;;5.33;2.00;;;;;13.68;92.89;101301.97;5093373;27;45713;-75
2023/10/16 12:15:59;;;;;;;;;2.00;2.00;;;;;13.64;91.86;101286.94;5092731;27;45302;-75
2023/10/16 12:18:31;;;;;;;;;1.00;1.00;;;;;13.59;90.58;101262.78;5091551;27;47071;-75
2023/10/16 12:21:06;;;;;;;;;0.00;0.00;;;;;13.66;90.31;101282.06;5090185;27;45779;-77
2023/10/16 12:23:36;;;;;;;;;2.67;1.67;;;;;13.72;89.47;101315.13;5093934;27;45389;-76
2023/10/16 12:26:03;;;;;;;;;1.67;0.67;;;;;13.78;89.27;101299.63;5092613;27;45760;-77
2023/10/16 12:28:30;;;;;;;;;2.33;1.00;;;;;13.76;88.73;101299.00;5104661;27;47342;-76
2023/10/16 12:30:57;;;;;;;;;0.67;0.67;;;;;13.79;88.09;101301.34;5093357;27;45404;-76
2023/10/16 12:33:25;;;;;;;;;1.00;1.00;;;;;13.85;87.29;101300.47;5092578;27;45496;-75
2023/10/16 12:35:55;;;;;;;;;2.67;1.33;;;;;13.94;87.66;101287.28;5088581;27;46053;-77
2023/10/16 12:38:23;;;;;;;;;0.00;0.00;;;;;13.77;85.55;101278.63;5089144;27;46550;-77
2023/10/16 12:40:58;;;;;;;;;0.33;0.33;;;;;13.85;86.00;101278.41;5092829;27;45557;-77
2023/10/16 12:43:25;;;;;;;;;1.00;1.00;;;;;13.98;86.04;101269.22;5093296;27;45669;-78
2023/10/16 12:45:51;;;;;;;;;1.00;1.00;;;;;14.05;85.77;101269.19;5088667;27;45635;-77
2023/10/16 12:48:17;;;;;;;;;1.00;1.00;;;;;14.05;84.13;101256.25;5093061;27;45498;-78
2023/10/16 12:50:47;;;;;;;;;2.67;1.00;;;;;13.90;82.28;101262.03;5093115;27;45886;-76
2023/10/16 12:53:13;;;;;;;;;1.00;1.00;;;;;13.81;82.60;101246.81;5094471;27;45963;-76
2023/10/16 12:55:40;;;;;;;;;1.00;1.00;;;;;13.83;82.26;101254.88;5093192;27;45732;-76
2023/10/16 12:58:10;;;;;;;;;0.00;0.00;;;;;13.88;81.63;101249.56;5089093;27;46364;-78
2023/10/16 13:00:39;;;;;;;;;0.33;0.33;;;;;13.87;81.42;101256.13;5119690;27;45805;-76
2023/10/16 13:03:13;;;;;;;;;0.00;0.00;;;;;13.72;81.30;101248.13;5080685;27;45302;-77
2023/10/16 13:05:40;;;;;;;;;0.67;0.00;;;;;13.81;81.93;101246.81;5088610;27;45532;-78
2023/10/16 13:08:08;;;;;;;;;0.33;0.33;;;;;13.89;82.23;101230.03;5099610;27;47060;-78
2023/10/16 13:10:33;;;;;;;;;0.67;0.67;;;;;13.92;81.85;101231.50;5098372;27;45576;-77
2023/10/16 13:13:00;;;;;;;;;0.33;0.33;;;;;13.92;82.89;101226.84;5095871;27;45164;-78
2023/10/16 13:15:25;;;;;;;;;0.00;0.00;;;;;13.91;81.87;101229.81;5090189;27;45362;-75
2023/10/16 13:17:52;;;;;;;;;0.33;0.00;;;;;13.87;82.69;101225.81;5094037;27;45695;-75
2023/10/16 13:20:17;;;;;;;;;1.00;1.00;;;;;13.82;81.95;101226.47;5095129;27;45561;-76
2023/10/16 13:22:44;;;;;;;;;1.67;0.00;;;;;13.77;81.96;101229.00;5095625;27;45851;-76
2023/10/16 13:25:13;;;;;;;;;2.00;1.00;;;;;13.72;81.45;101223.31;5094104;27;45856;-77
2023/10/16 13:27:39;;;;;;;;;1.33;1.00;;;;;13.71;82.01;101216.09;5094735;27;45512;-77
2023/10/16 13:30:06;;;;;;;;;0.00;0.00;;;;;13.69;81.36;101223.75;5093806;27;45414;-77
2023/10/16 13:32:32;;;;;;;;;1.00;1.00;;;;;13.70;82.52;101230.97;5092796;27;45384;-78